Terminal Aerodrome Forecast
Issued by NWS Twin Cities, MN

Home | Current Version | Previous Version | Graphics & Text | Print | Product List | Glossary On
Versions: 1 2 3 4 5 6 7 8 9 10 11 12 13 14
846
FTUS43 KMPX 040540
TAFSTC
TAF
KSTC 040540Z 0406/0506 21004KT P6SM OVC050
     FM041100 24005KT 3SM -SN BR OVC018
      TEMPO 0412/0415 3/4SM -SN BR OVC006
     FM041600 30008KT P6SM OVC015
     FM042000 30008KT P6SM BKN020
     FM050100 30004KT P6SM FEW020=

USA.gov is the U.S. government's official web portal to all federal, state and local government web resources and services.